sensor_id;sensor_type;location;lat;lon;timestamp;P1;durP1;ratioP1;P2;durP2;ratioP2
56425;SDS011;42330;43.620;3.856;2022-09-09T00:03:43;8.82;;;1.30;;
56425;SDS011;42330;43.620;3.856;2022-09-09T00:06:24;7.10;;;1.15;;
56425;SDS011;42330;43.620;3.856;2022-09-09T00:09:00;5.45;;;1.10;;
56425;SDS011;42330;43.620;3.856;2022-09-09T00:11:43;4.43;;;0.88;;
56425;SDS011;42330;43.620;3.856;2022-09-09T00:14:37;3.28;;;0.80;;
56425;SDS011;42330;43.620;3.856;2022-09-09T00:17:15;3.08;;;0.90;;
56425;SDS011;42330;43.620;3.856;2022-09-09T00:19:49;3.50;;;0.82;;
56425;SDS011;42330;43.620;3.856;2022-09-09T00:25:19;4.25;;;1.00;;
56425;SDS011;42330;43.620;3.856;2022-09-09T00:27:59;2.80;;;0.88;;
56425;SDS011;42330;43.620;3.856;2022-09-09T00:30:31;4.70;;;0.80;;
56425;SDS011;42330;43.620;3.856;2022-09-09T00:33:00;5.75;;;0.80;;
56425;SDS011;42330;43.620;3.856;2022-09-09T00:35:30;3.65;;;0.90;;
56425;SDS011;42330;43.620;3.856;2022-09-09T00:38:03;2.97;;;0.80;;
56425;SDS011;42330;43.620;3.856;2022-09-09T00:43:35;3.85;;;0.90;;
56425;SDS011;42330;43.620;3.856;2022-09-09T00:46:25;4.03;;;0.90;;
56425;SDS011;42330;43.620;3.856;2022-09-09T00:49:02;4.82;;;0.63;;
56425;SDS011;42330;43.620;3.856;2022-09-09T00:56:43;3.35;;;0.80;;
56425;SDS011;42330;43.620;3.856;2022-09-09T00:59:35;7.88;;;0.98;;
56425;SDS011;42330;43.620;3.856;2022-09-09T01:04:47;3.92;;;0.80;;
56425;SDS011;42330;43.620;3.856;2022-09-09T01:07:16;4.90;;;0.90;;
56425;SDS011;42330;43.620;3.856;2022-09-09T01:09:56;2.55;;;0.70;;
56425;SDS011;42330;43.620;3.856;2022-09-09T01:12:34;2.65;;;0.77;;
56425;SDS011;42330;43.620;3.856;2022-09-09T01:15:11;2.95;;;0.80;;
56425;SDS011;42330;43.620;3.856;2022-09-09T01:20:22;4.85;;;0.77;;
56425;SDS011;42330;43.620;3.856;2022-09-09T01:23:26;2.28;;;0.90;;
56425;SDS011;42330;43.620;3.856;2022-09-09T01:26:21;4.32;;;1.08;;
56425;SDS011;42330;43.620;3.856;2022-09-09T01:28:59;5.65;;;1.15;;
56425;SDS011;42330;43.620;3.856;2022-09-09T01:31:29;3.35;;;0.57;;
56425;SDS011;42330;43.620;3.856;2022-09-09T01:34:00;4.75;;;0.70;;
56425;SDS011;42330;43.620;3.856;2022-09-09T01:36:28;4.65;;;1.00;;
56425;SDS011;42330;43.620;3.856;2022-09-09T01:39:10;3.42;;;0.80;;
56425;SDS011;42330;43.620;3.856;2022-09-09T01:41:37;4.43;;;0.85;;
56425;SDS011;42330;43.620;3.856;2022-09-09T01:44:03;4.13;;;0.95;;
56425;SDS011;42330;43.620;3.856;2022-09-09T01:46:31;3.83;;;0.60;;
56425;SDS011;42330;43.620;3.856;2022-09-09T01:48:56;3.63;;;0.80;;
56425;SDS011;42330;43.620;3.856;2022-09-09T01:51:24;5.22;;;0.80;;
56425;SDS011;42330;43.620;3.856;2022-09-09T01:53:49;4.38;;;1.00;;
56425;SDS011;42330;43.620;3.856;2022-09-09T01:56:21;3.83;;;0.70;;
56425;SDS011;42330;43.620;3.856;2022-09-09T02:01:38;2.67;;;0.60;;
56425;SDS011;42330;43.620;3.856;2022-09-09T02:04:37;2.58;;;0.70;;
56425;SDS011;42330;43.620;3.856;2022-09-09T02:12:43;3.45;;;0.80;;
56425;SDS011;42330;43.620;3.856;2022-09-09T02:15:16;5.03;;;0.80;;
56425;SDS011;42330;43.620;3.856;2022-09-09T02:17:48;2.85;;;0.60;;
56425;SDS011;42330;43.620;3.856;2022-09-09T02:20:17;2.85;;;0.80;;
56425;SDS011;42330;43.620;3.856;2022-09-09T02:22:44;3.17;;;0.60;;
56425;SDS011;42330;43.620;3.856;2022-09-09T02:25:14;4.45;;;0.70;;
56425;SDS011;42330;43.620;3.856;2022-09-09T02:27:43;3.28;;;0.70;;
56425;SDS011;42330;43.620;3.856;2022-09-09T02:30:11;3.38;;;0.50;;
56425;SDS011;42330;43.620;3.856;2022-09-09T02:32:37;4.22;;;0.70;;
56425;SDS011;42330;43.620;3.856;2022-09-09T02:35:06;1.67;;;0.50;;
56425;SDS011;42330;43.620;3.856;2022-09-09T02:37:36;3.25;;;0.60;;
56425;SDS011;42330;43.620;3.856;2022-09-09T02:40:04;2.40;;;0.65;;
56425;SDS011;42330;43.620;3.856;2022-09-09T02:42:34;3.40;;;0.70;;
56425;SDS011;42330;43.620;3.856;2022-09-09T02:45:08;3.72;;;0.70;;
56425;SDS011;42330;43.620;3.856;2022-09-09T02:56:15;4.40;;;0.80;;
56425;SDS011;42330;43.620;3.856;2022-09-09T02:58:44;4.57;;;0.80;;
56425;SDS011;42330;43.620;3.856;2022-09-09T03:01:11;2.20;;;0.60;;
56425;SDS011;42330;43.620;3.856;2022-09-09T03:03:37;2.20;;;0.70;;
56425;SDS011;42330;43.620;3.856;2022-09-09T03:06:03;4.97;;;0.70;;
56425;SDS011;42330;43.620;3.856;2022-09-09T03:08:30;3.63;;;0.77;;
56425;SDS011;42330;43.620;3.856;2022-09-09T03:10:58;3.25;;;0.80;;
56425;SDS011;42330;43.620;3.856;2022-09-09T03:13:26;3.13;;;0.70;;
56425;SDS011;42330;43.620;3.856;2022-09-09T03:15:52;4.30;;;0.90;;
56425;SDS011;42330;43.620;3.856;2022-09-09T03:18:17;4.75;;;0.88;;
56425;SDS011;42330;43.620;3.856;2022-09-09T03:20:43;4.85;;;0.85;;
56425;SDS011;42330;43.620;3.856;2022-09-09T03:23:11;3.80;;;0.80;;
56425;SDS011;42330;43.620;3.856;2022-09-09T03:25:38;2.92;;;0.85;;
56425;SDS011;42330;43.620;3.856;2022-09-09T03:28:04;3.20;;;0.73;;
56425;SDS011;42330;43.620;3.856;2022-09-09T03:30:30;4.80;;;0.80;;
56425;SDS011;42330;43.620;3.856;2022-09-09T03:32:56;4.45;;;0.68;;
56425;SDS011;42330;43.620;3.856;2022-09-09T03:35:22;4.00;;;0.80;;
56425;SDS011;42330;43.620;3.856;2022-09-09T03:37:48;3.03;;;0.70;;
56425;SDS011;42330;43.620;3.856;2022-09-09T03:40:14;2.85;;;0.70;;
56425;SDS011;42330;43.620;3.856;2022-09-09T03:42:40;2.30;;;0.68;;
56425;SDS011;42330;43.620;3.856;2022-09-09T03:45:06;3.13;;;0.68;;
56425;SDS011;42330;43.620;3.856;2022-09-09T03:47:34;5.13;;;0.70;;
56425;SDS011;42330;43.620;3.856;2022-09-09T03:50:00;2.90;;;0.80;;
56425;SDS011;42330;43.620;3.856;2022-09-09T03:52:26;3.28;;;0.75;;
56425;SDS011;42330;43.620;3.856;2022-09-09T03:54:52;3.67;;;0.75;;
56425;SDS011;42330;43.620;3.856;2022-09-09T03:57:19;3.20;;;0.70;;
56425;SDS011;42330;43.620;3.856;2022-09-09T03:59:45;3.20;;;0.80;;
56425;SDS011;42330;43.620;3.856;2022-09-09T04:02:10;4.20;;;0.70;;
56425;SDS011;42330;43.620;3.856;2022-09-09T04:04:36;6.25;;;0.90;;
56425;SDS011;42330;43.620;3.856;2022-09-09T04:07:02;6.10;;;0.88;;
56425;SDS011;42330;43.620;3.856;2022-09-09T04:09:27;6.00;;;0.90;;
56425;SDS011;42330;43.620;3.856;2022-09-09T04:11:53;3.55;;;0.65;;
56425;SDS011;42330;43.620;3.856;2022-09-09T04:14:20;4.35;;;0.82;;
56425;SDS011;42330;43.620;3.856;2022-09-09T04:16:46;3.85;;;0.85;;
56425;SDS011;42330;43.620;3.856;2022-09-09T04:19:12;3.47;;;0.70;;
56425;SDS011;42330;43.620;3.856;2022-09-09T04:21:39;2.53;;;0.75;;
56425;SDS011;42330;43.620;3.856;2022-09-09T04:24:06;4.78;;;0.70;;
56425;SDS011;42330;43.620;3.856;2022-09-09T04:26:32;4.45;;;0.70;;
56425;SDS011;42330;43.620;3.856;2022-09-09T04:28:58;3.40;;;0.80;;
56425;SDS011;42330;43.620;3.856;2022-09-09T04:31:24;3.45;;;0.60;;
56425;SDS011;42330;43.620;3.856;2022-09-09T04:33:50;3.00;;;0.90;;
56425;SDS011;42330;43.620;3.856;2022-09-09T04:36:17;2.88;;;0.80;;
56425;SDS011;42330;43.620;3.856;2022-09-09T04:38:44;6.40;;;1.00;;
56425;SDS011;42330;43.620;3.856;2022-09-09T04:41:10;5.03;;;0.90;;
56425;SDS011;42330;43.620;3.856;2022-09-09T04:43:37;4.32;;;0.90;;
56425;SDS011;42330;43.620;3.856;2022-09-09T04:46:03;3.20;;;0.80;;
56425;SDS011;42330;43.620;3.856;2022-09-09T04:48:29;3.78;;;0.68;;
56425;SDS011;42330;43.620;3.856;2022-09-09T04:53:23;4.55;;;0.70;;
56425;SDS011;42330;43.620;3.856;2022-09-09T04:55:51;6.10;;;0.90;;
56425;SDS011;42330;43.620;3.856;2022-09-09T04:58:18;3.13;;;0.70;;
56425;SDS011;42330;43.620;3.856;2022-09-09T05:00:44;2.38;;;0.60;;
56425;SDS011;42330;43.620;3.856;2022-09-09T05:03:09;3.22;;;0.50;;
56425;SDS011;42330;43.620;3.856;2022-09-09T05:05:35;3.03;;;0.60;;
56425;SDS011;42330;43.620;3.856;2022-09-09T05:08:02;2.03;;;0.50;;
56425;SDS011;42330;43.620;3.856;2022-09-09T05:10:28;1.83;;;0.50;;
56425;SDS011;42330;43.620;3.856;2022-09-09T05:12:54;2.05;;;0.50;;
56425;SDS011;42330;43.620;3.856;2022-09-09T05:15:20;3.05;;;0.55;;
56425;SDS011;42330;43.620;3.856;2022-09-09T05:17:46;2.63;;;0.55;;
56425;SDS011;42330;43.620;3.856;2022-09-09T05:20:11;3.97;;;0.70;;
56425;SDS011;42330;43.620;3.856;2022-09-09T05:22:37;2.65;;;0.60;;
56425;SDS011;42330;43.620;3.856;2022-09-09T05:25:03;5.05;;;0.70;;
56425;SDS011;42330;43.620;3.856;2022-09-09T05:27:29;5.88;;;0.70;;
56425;SDS011;42330;43.620;3.856;2022-09-09T05:29:56;3.47;;;0.60;;
56425;SDS011;42330;43.620;3.856;2022-09-09T05:32:23;2.47;;;0.63;;
56425;SDS011;42330;43.620;3.856;2022-09-09T05:34:49;1.95;;;0.52;;
56425;SDS011;42330;43.620;3.856;2022-09-09T05:37:15;4.85;;;0.63;;
56425;SDS011;42330;43.620;3.856;2022-09-09T05:39:41;3.10;;;0.60;;
56425;SDS011;42330;43.620;3.856;2022-09-09T05:42:07;2.97;;;0.50;;
56425;SDS011;42330;43.620;3.856;2022-09-09T05:44:33;3.58;;;0.68;;
56425;SDS011;42330;43.620;3.856;2022-09-09T05:46:58;4.38;;;0.60;;
56425;SDS011;42330;43.620;3.856;2022-09-09T05:49:24;3.08;;;0.45;;
56425;SDS011;42330;43.620;3.856;2022-09-09T05:51:50;3.45;;;0.50;;
56425;SDS011;42330;43.620;3.856;2022-09-09T05:54:16;3.08;;;0.60;;
56425;SDS011;42330;43.620;3.856;2022-09-09T05:56:42;1.58;;;0.45;;
56425;SDS011;42330;43.620;3.856;2022-09-09T05:59:08;4.20;;;0.50;;
56425;SDS011;42330;43.620;3.856;2022-09-09T06:01:35;1.75;;;0.40;;
56425;SDS011;42330;43.620;3.856;2022-09-09T06:04:05;1.85;;;0.43;;
56425;SDS011;42330;43.620;3.856;2022-09-09T06:06:32;2.28;;;0.40;;
56425;SDS011;42330;43.620;3.856;2022-09-09T06:09:02;1.30;;;0.30;;
56425;SDS011;42330;43.620;3.856;2022-09-09T06:11:31;3.25;;;0.45;;
56425;SDS011;42330;43.620;3.856;2022-09-09T06:13:59;1.65;;;0.30;;
56425;SDS011;42330;43.620;3.856;2022-09-09T06:16:25;2.75;;;0.40;;
56425;SDS011;42330;43.620;3.856;2022-09-09T06:18:53;1.83;;;0.50;;
56425;SDS011;42330;43.620;3.856;2022-09-09T06:21:25;2.33;;;0.40;;
56425;SDS011;42330;43.620;3.856;2022-09-09T06:23:53;2.50;;;0.40;;
56425;SDS011;42330;43.620;3.856;2022-09-09T06:26:20;7.20;;;0.70;;
56425;SDS011;42330;43.620;3.856;2022-09-09T06:28:48;7.20;;;0.50;;
56425;SDS011;42330;43.620;3.856;2022-09-09T06:31:15;2.60;;;0.47;;
56425;SDS011;42330;43.620;3.856;2022-09-09T06:33:46;2.22;;;0.68;;
56425;SDS011;42330;43.620;3.856;2022-09-09T06:36:31;2.20;;;0.30;;
56425;SDS011;42330;43.620;3.856;2022-09-09T06:38:59;1.45;;;0.40;;
56425;SDS011;42330;43.620;3.856;2022-09-09T06:41:26;6.28;;;0.57;;
56425;SDS011;42330;43.620;3.856;2022-09-09T06:43:53;2.63;;;0.75;;
56425;SDS011;42330;43.620;3.856;2022-09-09T06:46:21;4.80;;;0.60;;
56425;SDS011;42330;43.620;3.856;2022-09-09T06:48:52;1.85;;;0.50;;
56425;SDS011;42330;43.620;3.856;2022-09-09T06:51:24;4.30;;;0.50;;
56425;SDS011;42330;43.620;3.856;2022-09-09T06:54:01;2.55;;;0.40;;
56425;SDS011;42330;43.620;3.856;2022-09-09T06:56:31;2.17;;;0.40;;
56425;SDS011;42330;43.620;3.856;2022-09-09T06:58:59;3.00;;;0.55;;
56425;SDS011;42330;43.620;3.856;2022-09-09T07:01:29;1.27;;;0.35;;
56425;SDS011;42330;43.620;3.856;2022-09-09T07:03:57;1.23;;;0.38;;
56425;SDS011;42330;43.620;3.856;2022-09-09T07:06:24;2.13;;;0.43;;
56425;SDS011;42330;43.620;3.856;2022-09-09T07:08:53;2.25;;;0.32;;
56425;SDS011;42330;43.620;3.856;2022-09-09T07:11:20;2.60;;;0.52;;
56425;SDS011;42330;43.620;3.856;2022-09-09T07:13:48;6.30;;;0.40;;
56425;SDS011;42330;43.620;3.856;2022-09-09T07:16:15;4.13;;;0.88;;
56425;SDS011;42330;43.620;3.856;2022-09-09T07:18:43;4.85;;;0.43;;
56425;SDS011;42330;43.620;3.856;2022-09-09T07:21:10;1.58;;;0.32;;
56425;SDS011;42330;43.620;3.856;2022-09-09T07:23:37;1.75;;;0.40;;
56425;SDS011;42330;43.620;3.856;2022-09-09T07:26:13;2.17;;;0.30;;
56425;SDS011;42330;43.620;3.856;2022-09-09T07:28:40;5.28;;;0.40;;
56425;SDS011;42330;43.620;3.856;2022-09-09T07:31:07;3.80;;;0.43;;
56425;SDS011;42330;43.620;3.856;2022-09-09T07:33:38;4.82;;;0.50;;
56425;SDS011;42330;43.620;3.856;2022-09-09T07:38:37;4.65;;;0.70;;
56425;SDS011;42330;43.620;3.856;2022-09-09T07:41:09;1.85;;;0.40;;
56425;SDS011;42330;43.620;3.856;2022-09-09T07:43:40;1.83;;;0.40;;
56425;SDS011;42330;43.620;3.856;2022-09-09T07:46:07;2.45;;;0.32;;
56425;SDS011;42330;43.620;3.856;2022-09-09T07:48:34;3.95;;;0.40;;
56425;SDS011;42330;43.620;3.856;2022-09-09T07:51:19;1.27;;;0.28;;
56425;SDS011;42330;43.620;3.856;2022-09-09T07:53:47;1.40;;;0.40;;
56425;SDS011;42330;43.620;3.856;2022-09-09T07:56:15;1.80;;;0.43;;
56425;SDS011;42330;43.620;3.856;2022-09-09T07:58:46;3.25;;;0.40;;
56425;SDS011;42330;43.620;3.856;2022-09-09T08:01:16;1.52;;;0.47;;
56425;SDS011;42330;43.620;3.856;2022-09-09T08:03:51;1.17;;;0.30;;
56425;SDS011;42330;43.620;3.856;2022-09-09T08:06:19;2.58;;;0.40;;
56425;SDS011;42330;43.620;3.856;2022-09-09T08:08:45;1.90;;;0.40;;
56425;SDS011;42330;43.620;3.856;2022-09-09T08:11:15;2.00;;;0.30;;
56425;SDS011;42330;43.620;3.856;2022-09-09T08:13:41;5.05;;;0.35;;
56425;SDS011;42330;43.620;3.856;2022-09-09T08:16:16;2.00;;;0.35;;
56425;SDS011;42330;43.620;3.856;2022-09-09T08:18:44;3.25;;;0.25;;
56425;SDS011;42330;43.620;3.856;2022-09-09T08:21:14;1.85;;;0.50;;
56425;SDS011;42330;43.620;3.856;2022-09-09T08:23:50;3.72;;;0.40;;
56425;SDS011;42330;43.620;3.856;2022-09-09T08:26:38;1.25;;;0.30;;
56425;SDS011;42330;43.620;3.856;2022-09-09T08:29:05;2.53;;;0.30;;
56425;SDS011;42330;43.620;3.856;2022-09-09T08:31:39;2.17;;;0.40;;
56425;SDS011;42330;43.620;3.856;2022-09-09T08:34:07;1.77;;;0.40;;
56425;SDS011;42330;43.620;3.856;2022-09-09T08:36:38;3.17;;;0.50;;
56425;SDS011;42330;43.620;3.856;2022-09-09T08:39:06;2.92;;;0.50;;
56425;SDS011;42330;43.620;3.856;2022-09-09T08:41:40;2.50;;;0.40;;
56425;SDS011;42330;43.620;3.856;2022-09-09T08:54:48;1.75;;;0.40;;
56425;SDS011;42330;43.620;3.856;2022-09-09T08:57:18;5.80;;;0.77;;
56425;SDS011;42330;43.620;3.856;2022-09-09T08:59:51;3.30;;;0.43;;
56425;SDS011;42330;43.620;3.856;2022-09-09T09:08:17;4.65;;;0.55;;
56425;SDS011;42330;43.620;3.856;2022-09-09T09:11:03;2.72;;;0.40;;
56425;SDS011;42330;43.620;3.856;2022-09-09T09:16:59;2.65;;;0.55;;
56425;SDS011;42330;43.620;3.856;2022-09-09T09:19:29;3.42;;;0.50;;
56425;SDS011;42330;43.620;3.856;2022-09-09T09:22:03;3.25;;;0.40;;
56425;SDS011;42330;43.620;3.856;2022-09-09T09:27:34;2.50;;;0.50;;
56425;SDS011;42330;43.620;3.856;2022-09-09T09:30:17;3.60;;;0.60;;
56425;SDS011;42330;43.620;3.856;2022-09-09T09:32:52;4.03;;;0.50;;
56425;SDS011;42330;43.620;3.856;2022-09-09T09:35:23;6.75;;;0.70;;
56425;SDS011;42330;43.620;3.856;2022-09-09T09:37:49;2.83;;;0.40;;
56425;SDS011;42330;43.620;3.856;2022-09-09T09:40:18;5.93;;;0.50;;
56425;SDS011;42330;43.620;3.856;2022-09-09T09:42:53;4.90;;;0.70;;
56425;SDS011;42330;43.620;3.856;2022-09-09T09:48:01;6.78;;;0.70;;
56425;SDS011;42330;43.620;3.856;2022-09-09T09:50:29;5.03;;;0.80;;
56425;SDS011;42330;43.620;3.856;2022-09-09T09:52:57;5.43;;;0.65;;
56425;SDS011;42330;43.620;3.856;2022-09-09T09:55:28;5.82;;;1.00;;
56425;SDS011;42330;43.620;3.856;2022-09-09T09:58:03;3.17;;;0.60;;
56425;SDS011;42330;43.620;3.856;2022-09-09T10:00:30;5.93;;;0.75;;
56425;SDS011;42330;43.620;3.856;2022-09-09T10:02:59;6.35;;;0.65;;
56425;SDS011;42330;43.620;3.856;2022-09-09T10:05:27;4.72;;;0.75;;
56425;SDS011;42330;43.620;3.856;2022-09-09T10:08:04;7.18;;;0.73;;
56425;SDS011;42330;43.620;3.856;2022-09-09T10:10:40;3.20;;;0.70;;
56425;SDS011;42330;43.620;3.856;2022-09-09T10:26:55;6.38;;;2.88;;
56425;SDS011;42330;43.620;3.856;2022-09-09T10:29:40;4.32;;;1.08;;
56425;SDS011;42330;43.620;3.856;2022-09-09T10:35:49;5.13;;;0.80;;
56425;SDS011;42330;43.620;3.856;2022-09-09T10:44:02;1.60;;;0.30;;
56425;SDS011;42330;43.620;3.856;2022-09-09T11:00:27;4.75;;;0.63;;
56425;SDS011;42330;43.620;3.856;2022-09-09T11:02:57;2.58;;;0.52;;
56425;SDS011;42330;43.620;3.856;2022-09-09T11:05:31;3.40;;;0.50;;
56425;SDS011;42330;43.620;3.856;2022-09-09T11:11:10;4.15;;;0.60;;
56425;SDS011;42330;43.620;3.856;2022-09-09T11:19:14;4.75;;;0.60;;
56425;SDS011;42330;43.620;3.856;2022-09-09T11:21:47;2.40;;;0.50;;
56425;SDS011;42330;43.620;3.856;2022-09-09T11:27:02;1.52;;;0.40;;
56425;SDS011;42330;43.620;3.856;2022-09-09T11:38:26;2.97;;;0.50;;
56425;SDS011;42330;43.620;3.856;2022-09-09T11:40:54;3.45;;;0.40;;
56425;SDS011;42330;43.620;3.856;2022-09-09T11:43:25;2.63;;;0.40;;
56425;SDS011;42330;43.620;3.856;2022-09-09T11:45:55;3.35;;;0.63;;
56425;SDS011;42330;43.620;3.856;2022-09-09T11:48:37;1.67;;;0.40;;
56425;SDS011;42330;43.620;3.856;2022-09-09T11:53:55;3.83;;;0.40;;
56425;SDS011;42330;43.620;3.856;2022-09-09T11:56:30;3.05;;;0.52;;
56425;SDS011;42330;43.620;3.856;2022-09-09T11:59:29;4.03;;;0.50;;
56425;SDS011;42330;43.620;3.856;2022-09-09T12:01:57;1.30;;;0.30;;
56425;SDS011;42330;43.620;3.856;2022-09-09T12:07:05;1.58;;;0.40;;
56425;SDS011;42330;43.620;3.856;2022-09-09T12:09:52;2.60;;;0.40;;
56425;SDS011;42330;43.620;3.856;2022-09-09T12:17:41;2.25;;;0.30;;
56425;SDS011;42330;43.620;3.856;2022-09-09T12:20:52;0.93;;;0.30;;
56425;SDS011;42330;43.620;3.856;2022-09-09T12:28:52;3.08;;;0.30;;
56425;SDS011;42330;43.620;3.856;2022-09-09T12:34:17;1.35;;;0.40;;
56425;SDS011;42330;43.620;3.856;2022-09-09T12:37:03;1.20;;;0.30;;
56425;SDS011;42330;43.620;3.856;2022-09-09T12:39:41;3.08;;;0.40;;
56425;SDS011;42330;43.620;3.856;2022-09-09T12:42:29;4.85;;;0.50;;
56425;SDS011;42330;43.620;3.856;2022-09-09T12:45:02;4.47;;;0.40;;
56425;SDS011;42330;43.620;3.856;2022-09-09T12:50:17;2.00;;;0.40;;
56425;SDS011;42330;43.620;3.856;2022-09-09T12:52:46;2.15;;;0.30;;
56425;SDS011;42330;43.620;3.856;2022-09-09T12:55:20;1.13;;;0.30;;
56425;SDS011;42330;43.620;3.856;2022-09-09T12:57:50;3.15;;;0.43;;
56425;SDS011;42330;43.620;3.856;2022-09-09T13:00:21;1.85;;;0.40;;
56425;SDS011;42330;43.620;3.856;2022-09-09T13:02:49;1.20;;;0.35;;
56425;SDS011;42330;43.620;3.856;2022-09-09T13:05:34;1.77;;;0.30;;
56425;SDS011;42330;43.620;3.856;2022-09-09T13:08:05;0.65;;;0.30;;
56425;SDS011;42330;43.620;3.856;2022-09-09T13:13:13;0.73;;;0.22;;
56425;SDS011;42330;43.620;3.856;2022-09-09T13:15:52;2.92;;;0.40;;
56425;SDS011;42330;43.620;3.856;2022-09-09T13:18:25;1.17;;;0.20;;
56425;SDS011;42330;43.620;3.856;2022-09-09T13:20:55;1.15;;;0.30;;
56425;SDS011;42330;43.620;3.856;2022-09-09T13:23:23;0.93;;;0.43;;
56425;SDS011;42330;43.620;3.856;2022-09-09T13:25:56;1.20;;;0.43;;
56425;SDS011;42330;43.620;3.856;2022-09-09T13:28:27;1.13;;;0.50;;
56425;SDS011;42330;43.620;3.856;2022-09-09T13:31:04;1.90;;;0.50;;
56425;SDS011;42330;43.620;3.856;2022-09-09T13:33:43;0.90;;;0.30;;
56425;SDS011;42330;43.620;3.856;2022-09-09T13:36:10;0.85;;;0.30;;
56425;SDS011;42330;43.620;3.856;2022-09-09T13:41:24;1.40;;;0.30;;
56425;SDS011;42330;43.620;3.856;2022-09-09T13:43:59;1.42;;;0.30;;
56425;SDS011;42330;43.620;3.856;2022-09-09T13:46:34;1.08;;;0.50;;
56425;SDS011;42330;43.620;3.856;2022-09-09T13:49:01;0.70;;;0.20;;
56425;SDS011;42330;43.620;3.856;2022-09-09T13:51:43;0.98;;;0.20;;
56425;SDS011;42330;43.620;3.856;2022-09-09T13:54:15;0.73;;;0.20;;
56425;SDS011;42330;43.620;3.856;2022-09-09T13:56:43;2.33;;;0.20;;
56425;SDS011;42330;43.620;3.856;2022-09-09T13:59:11;2.47;;;0.20;;
56425;SDS011;42330;43.620;3.856;2022-09-09T14:01:38;1.13;;;0.22;;
56425;SDS011;42330;43.620;3.856;2022-09-09T14:04:04;1.95;;;0.20;;
56425;SDS011;42330;43.620;3.856;2022-09-09T14:06:34;0.75;;;0.20;;
56425;SDS011;42330;43.620;3.856;2022-09-09T14:09:03;0.30;;;0.10;;
56425;SDS011;42330;43.620;3.856;2022-09-09T14:11:32;1.08;;;0.30;;
56425;SDS011;42330;43.620;3.856;2022-09-09T14:13:58;0.95;;;0.20;;
56425;SDS011;42330;43.620;3.856;2022-09-09T14:16:25;1.33;;;0.10;;
56425;SDS011;42330;43.620;3.856;2022-09-09T14:18:53;1.05;;;0.30;;
56425;SDS011;42330;43.620;3.856;2022-09-09T14:21:21;3.25;;;0.22;;
56425;SDS011;42330;43.620;3.856;2022-09-09T14:23:46;3.55;;;0.30;;
56425;SDS011;42330;43.620;3.856;2022-09-09T14:26:13;2.25;;;0.28;;
56425;SDS011;42330;43.620;3.856;2022-09-09T14:28:39;1.65;;;0.17;;
56425;SDS011;42330;43.620;3.856;2022-09-09T14:31:05;0.85;;;0.28;;
56425;SDS011;42330;43.620;3.856;2022-09-09T14:33:32;0.63;;;0.20;;
56425;SDS011;42330;43.620;3.856;2022-09-09T14:36:02;0.57;;;0.10;;
56425;SDS011;42330;43.620;3.856;2022-09-09T14:38:29;2.13;;;0.20;;
56425;SDS011;42330;43.620;3.856;2022-09-09T14:40:56;1.10;;;0.20;;
56425;SDS011;42330;43.620;3.856;2022-09-09T14:43:23;0.73;;;0.20;;
56425;SDS011;42330;43.620;3.856;2022-09-09T14:45:49;0.68;;;0.20;;
56425;SDS011;42330;43.620;3.856;2022-09-09T14:48:16;2.60;;;0.20;;
56425;SDS011;42330;43.620;3.856;2022-09-09T14:50:42;1.02;;;0.30;;
56425;SDS011;42330;43.620;3.856;2022-09-09T14:53:08;0.55;;;0.20;;
56425;SDS011;42330;43.620;3.856;2022-09-09T14:55:34;1.02;;;0.20;;
56425;SDS011;42330;43.620;3.856;2022-09-09T14:58:01;1.30;;;0.22;;
56425;SDS011;42330;43.620;3.856;2022-09-09T15:00:27;1.80;;;0.40;;
56425;SDS011;42330;43.620;3.856;2022-09-09T15:02:53;0.75;;;0.20;;
56425;SDS011;42330;43.620;3.856;2022-09-09T15:05:19;1.20;;;0.30;;
56425;SDS011;42330;43.620;3.856;2022-09-09T15:07:45;1.90;;;0.20;;
56425;SDS011;42330;43.620;3.856;2022-09-09T15:10:12;0.70;;;0.22;;
56425;SDS011;42330;43.620;3.856;2022-09-09T15:12:37;1.17;;;0.30;;
56425;SDS011;42330;43.620;3.856;2022-09-09T15:15:04;0.98;;;0.20;;
56425;SDS011;42330;43.620;3.856;2022-09-09T15:17:30;1.55;;;0.25;;
56425;SDS011;42330;43.620;3.856;2022-09-09T15:19:55;1.13;;;0.25;;
56425;SDS011;42330;43.620;3.856;2022-09-09T15:22:21;2.72;;;0.30;;
56425;SDS011;42330;43.620;3.856;2022-09-09T15:24:47;1.00;;;0.20;;
56425;SDS011;42330;43.620;3.856;2022-09-09T15:27:13;2.50;;;0.32;;
56425;SDS011;42330;43.620;3.856;2022-09-09T15:29:39;2.67;;;0.40;;
56425;SDS011;42330;43.620;3.856;2022-09-09T15:32:06;3.17;;;0.20;;
56425;SDS011;42330;43.620;3.856;2022-09-09T15:34:32;0.85;;;0.20;;
56425;SDS011;42330;43.620;3.856;2022-09-09T15:36:58;0.63;;;0.20;;
56425;SDS011;42330;43.620;3.856;2022-09-09T15:39:25;0.77;;;0.20;;
56425;SDS011;42330;43.620;3.856;2022-09-09T15:41:51;2.88;;;0.30;;
56425;SDS011;42330;43.620;3.856;2022-09-09T15:44:16;1.70;;;0.20;;
56425;SDS011;42330;43.620;3.856;2022-09-09T15:49:11;1.50;;;0.30;;
56425;SDS011;42330;43.620;3.856;2022-09-09T15:51:45;1.40;;;0.30;;
56425;SDS011;42330;43.620;3.856;2022-09-09T15:54:22;1.33;;;0.30;;
56425;SDS011;42330;43.620;3.856;2022-09-09T15:56:56;2.10;;;0.40;;
56425;SDS011;42330;43.620;3.856;2022-09-09T15:59:23;2.22;;;0.40;;
56425;SDS011;42330;43.620;3.856;2022-09-09T16:01:49;1.40;;;0.20;;
56425;SDS011;42330;43.620;3.856;2022-09-09T16:04:18;1.15;;;0.20;;
56425;SDS011;42330;43.620;3.856;2022-09-09T16:06:51;1.27;;;0.40;;
56425;SDS011;42330;43.620;3.856;2022-09-09T16:09:17;1.98;;;0.30;;
56425;SDS011;42330;43.620;3.856;2022-09-09T16:11:43;2.17;;;0.30;;
56425;SDS011;42330;43.620;3.856;2022-09-09T16:14:09;1.02;;;0.20;;
56425;SDS011;42330;43.620;3.856;2022-09-09T16:16:36;1.10;;;0.25;;
56425;SDS011;42330;43.620;3.856;2022-09-09T16:19:06;0.98;;;0.20;;
56425;SDS011;42330;43.620;3.856;2022-09-09T16:21:38;2.50;;;0.20;;
56425;SDS011;42330;43.620;3.856;2022-09-09T16:24:07;0.77;;;0.17;;
56425;SDS011;42330;43.620;3.856;2022-09-09T16:26:35;2.53;;;0.30;;
56425;SDS011;42330;43.620;3.856;2022-09-09T16:29:03;3.03;;;0.30;;
56425;SDS011;42330;43.620;3.856;2022-09-09T16:31:29;0.93;;;0.28;;
56425;SDS011;42330;43.620;3.856;2022-09-09T16:33:57;1.70;;;0.30;;
56425;SDS011;42330;43.620;3.856;2022-09-09T16:36:26;1.15;;;0.20;;
56425;SDS011;42330;43.620;3.856;2022-09-09T16:38:55;2.42;;;0.40;;
56425;SDS011;42330;43.620;3.856;2022-09-09T16:41:22;1.83;;;0.30;;
56425;SDS011;42330;43.620;3.856;2022-09-09T16:43:56;1.17;;;0.30;;
56425;SDS011;42330;43.620;3.856;2022-09-09T16:46:27;1.23;;;0.30;;
56425;SDS011;42330;43.620;3.856;2022-09-09T16:48:58;0.98;;;0.30;;
56425;SDS011;42330;43.620;3.856;2022-09-09T16:51:29;1.13;;;0.30;;
56425;SDS011;42330;43.620;3.856;2022-09-09T16:54:00;2.05;;;0.35;;
56425;SDS011;42330;43.620;3.856;2022-09-09T16:56:28;1.08;;;0.30;;
56425;SDS011;42330;43.620;3.856;2022-09-09T16:58:56;2.38;;;0.40;;
56425;SDS011;42330;43.620;3.856;2022-09-09T17:01:23;2.13;;;0.20;;
56425;SDS011;42330;43.620;3.856;2022-09-09T17:03:53;1.30;;;0.20;;
56425;SDS011;42330;43.620;3.856;2022-09-09T17:06:23;1.75;;;0.40;;
56425;SDS011;42330;43.620;3.856;2022-09-09T17:08:54;2.38;;;0.50;;
56425;SDS011;42330;43.620;3.856;2022-09-09T17:11:20;1.77;;;0.30;;
56425;SDS011;42330;43.620;3.856;2022-09-09T17:13:46;1.15;;;0.38;;
56425;SDS011;42330;43.620;3.856;2022-09-09T17:16:14;2.15;;;0.30;;
56425;SDS011;42330;43.620;3.856;2022-09-09T17:18:41;1.27;;;0.40;;
56425;SDS011;42330;43.620;3.856;2022-09-09T17:21:11;2.13;;;0.52;;
56425;SDS011;42330;43.620;3.856;2022-09-09T17:23:39;1.67;;;0.30;;
56425;SDS011;42330;43.620;3.856;2022-09-09T17:26:07;3.17;;;0.40;;
56425;SDS011;42330;43.620;3.856;2022-09-09T17:28:35;2.20;;;0.47;;
56425;SDS011;42330;43.620;3.856;2022-09-09T17:31:03;2.20;;;0.43;;
56425;SDS011;42330;43.620;3.856;2022-09-09T17:33:32;1.50;;;0.40;;
56425;SDS011;42330;43.620;3.856;2022-09-09T17:36:00;3.13;;;0.50;;
56425;SDS011;42330;43.620;3.856;2022-09-09T17:38:27;1.80;;;0.40;;